createdAt,value
2019-03-26T00:02:22.794Z,11.80
2019-03-26T00:04:53.742Z,14.33
2019-03-26T00:07:24.837Z,13.33
2019-03-26T00:09:55.958Z,13.67
2019-03-26T00:12:27.563Z,13.90
2019-03-26T00:14:58.715Z,12.73
2019-03-26T00:17:29.866Z,12.60
2019-03-26T00:20:01.074Z,13.90
2019-03-26T00:22:32.205Z,13.17
2019-03-26T00:25:03.079Z,11.97
2019-03-26T00:27:34.078Z,12.43
2019-03-26T00:30:05.481Z,11.53
2019-03-26T00:32:36.591Z,11.60
2019-03-26T00:35:07.655Z,11.27
2019-03-26T00:37:38.946Z,11.90
2019-03-26T00:40:10.489Z,12.87
2019-03-26T00:42:42.667Z,12.77
2019-03-26T00:45:13.590Z,9.70
2019-03-26T00:47:44.667Z,10.00
2019-03-26T00:50:16.090Z,10.63
2019-03-26T00:52:46.999Z,10.23
2019-03-26T00:55:22.971Z,10.83
2019-03-26T00:57:51.127Z,9.93
2019-03-26T01:00:39.785Z,10.37
2019-03-26T01:03:10.715Z,10.10
2019-03-26T01:05:42.037Z,9.53
2019-03-26T01:08:13.076Z,11.23
2019-03-26T01:10:44.004Z,10.30
2019-03-26T01:13:15.251Z,10.57
2019-03-26T01:15:46.342Z,9.80
2019-03-26T01:18:17.384Z,10.10
2019-03-26T01:20:48.549Z,11.17
2019-03-26T01:23:19.745Z,10.77
2019-03-26T01:25:50.670Z,9.93
2019-03-26T01:28:21.646Z,10.77
2019-03-26T01:30:52.782Z,11.43
2019-03-26T01:33:23.635Z,12.27
2019-03-26T01:35:54.494Z,12.00
2019-03-26T01:38:25.695Z,13.37
2019-03-26T01:40:56.547Z,12.40
2019-03-26T01:43:27.725Z,13.10
2019-03-26T01:45:58.897Z,11.80
2019-03-26T01:48:29.863Z,12.50
2019-03-26T01:51:01.067Z,11.07
2019-03-26T01:53:32.002Z,13.87
2019-03-26T01:56:03.177Z,12.77
2019-03-26T01:58:34.384Z,12.70
2019-03-26T02:01:05.350Z,11.93
2019-03-26T02:03:36.198Z,11.57
2019-03-26T02:06:07.161Z,13.13
2019-03-26T02:08:38.439Z,13.60
2019-03-26T02:11:09.546Z,12.47
2019-03-26T02:13:40.831Z,12.33
2019-03-26T02:16:12.022Z,12.40
2019-03-26T02:18:43.074Z,12.20
2019-03-26T02:21:15.213Z,11.37
2019-03-26T02:23:46.056Z,11.67
2019-03-26T02:26:17.319Z,12.00
2019-03-26T02:28:48.462Z,12.40
2019-03-26T02:31:19.285Z,11.30
2019-03-26T02:33:50.206Z,10.67
2019-03-26T02:36:21.159Z,11.40
2019-03-26T02:38:52.000Z,12.30
2019-03-26T02:41:23.271Z,12.50
2019-03-26T02:43:54.517Z,12.10
2019-03-26T02:46:25.672Z,11.77
2019-03-26T02:48:56.803Z,11.07
2019-03-26T02:51:27.988Z,11.30
2019-03-26T02:53:59.206Z,11.47
2019-03-26T02:56:30.458Z,11.53
2019-03-26T02:59:01.407Z,10.50
2019-03-26T03:01:32.921Z,10.80
2019-03-26T03:04:03.921Z,10.67
2019-03-26T03:06:35.053Z,10.87
2019-03-26T03:09:07.700Z,11.30
2019-03-26T03:11:38.848Z,11.87
2019-03-26T03:14:09.784Z,13.00
2019-03-26T03:16:40.877Z,10.60
2019-03-26T03:19:15.647Z,10.10
2019-03-26T03:21:44.812Z,10.60
2019-03-26T03:24:15.967Z,10.20
2019-03-26T03:26:46.847Z,9.83
2019-03-26T03:29:17.737Z,9.43
2019-03-26T03:31:49.758Z,9.30
2019-03-26T03:34:20.628Z,9.43
2019-03-26T03:36:51.755Z,9.27
2019-03-26T03:39:22.958Z,10.57
2019-03-26T03:41:53.910Z,9.73
2019-03-26T03:44:24.954Z,9.73
2019-03-26T03:46:56.858Z,10.13
2019-03-26T03:49:30.633Z,9.50
2019-03-26T03:52:03.745Z,8.87
2019-03-26T03:54:37.580Z,9.27
2019-03-26T03:57:10.154Z,9.87
2019-03-26T03:59:43.633Z,10.03
2019-03-26T04:02:14.505Z,9.37
2019-03-26T04:04:45.606Z,10.63
2019-03-26T04:07:16.899Z,9.33
2019-03-26T04:09:48.131Z,9.60
2019-03-26T04:12:18.987Z,8.93
2019-03-26T04:14:50.448Z,9.57
2019-03-26T04:17:21.534Z,8.13
2019-03-26T04:19:52.416Z,9.47
2019-03-26T04:22:23.572Z,9.57
2019-03-26T04:24:54.684Z,10.17
2019-03-26T04:27:26.593Z,8.90
2019-03-26T04:29:57.643Z,9.30
2019-03-26T04:32:28.485Z,8.93
2019-03-26T04:34:59.596Z,8.90
2019-03-26T04:37:31.926Z,10.17
2019-03-26T04:40:02.894Z,9.90
2019-03-26T04:42:34.171Z,9.33
2019-03-26T04:45:05.536Z,9.50
2019-03-26T04:47:36.569Z,10.30
2019-03-26T04:50:07.911Z,9.80
2019-03-26T04:52:39.120Z,10.20
2019-03-26T04:55:11.447Z,9.43
2019-03-26T04:57:42.368Z,10.70
2019-03-26T05:00:13.821Z,9.83
2019-03-26T05:02:44.785Z,10.13
2019-03-26T05:05:16.839Z,9.83
2019-03-26T05:07:48.076Z,10.17
2019-03-26T05:10:19.266Z,10.80
2019-03-26T05:12:50.536Z,10.17
2019-03-26T05:15:21.649Z,10.83
2019-03-26T05:17:52.769Z,11.60
2019-03-26T05:20:23.960Z,10.37
2019-03-26T05:22:54.801Z,11.20
2019-03-26T05:25:25.996Z,11.03
2019-03-26T05:27:57.227Z,11.57
2019-03-26T05:30:28.315Z,10.83
2019-03-26T05:32:59.125Z,9.87
2019-03-26T05:35:30.257Z,10.93
2019-03-26T05:38:01.254Z,10.30
2019-03-26T05:40:32.284Z,10.53
2019-03-26T05:43:03.482Z,10.77
2019-03-26T05:45:34.710Z,11.30
2019-03-26T05:48:05.668Z,10.37
2019-03-26T05:50:36.819Z,11.33
2019-03-26T05:53:07.890Z,11.57
2019-03-26T05:55:38.868Z,11.50
2019-03-26T05:58:09.930Z,10.40
2019-03-26T06:00:41.124Z,11.13
2019-03-26T06:03:11.959Z,11.03
2019-03-26T06:05:42.959Z,11.07
2019-03-26T06:08:13.954Z,10.53
2019-03-26T06:10:45.194Z,11.63
2019-03-26T06:13:17.304Z,10.97
2019-03-26T06:15:48.251Z,10.10
2019-03-26T06:18:19.334Z,10.53
2019-03-26T06:20:50.585Z,9.67
2019-03-26T06:23:21.482Z,11.53
2019-03-26T06:25:52.454Z,12.03
2019-03-26T06:28:24.727Z,9.90
2019-03-26T06:30:56.647Z,11.90
2019-03-26T06:33:27.625Z,10.53
2019-03-26T06:35:58.576Z,11.03
2019-03-26T06:38:29.856Z,10.70
2019-03-26T06:41:02.014Z,10.23
2019-03-26T06:43:32.838Z,10.37
2019-03-26T06:46:03.782Z,10.57
2019-03-26T06:48:34.965Z,9.57
2019-03-26T06:51:05.950Z,9.43
2019-03-26T06:53:36.834Z,8.70
2019-03-26T06:56:07.956Z,9.17
2019-03-26T06:58:39.075Z,9.80
2019-03-26T07:01:09.951Z,9.60
2019-03-26T07:03:41.172Z,9.17
2019-03-26T07:06:12.127Z,8.43
2019-03-26T07:08:43.026Z,9.03
2019-03-26T07:11:13.902Z,7.80
2019-03-26T07:13:44.780Z,8.17
2019-03-26T07:16:15.895Z,8.13
2019-03-26T07:18:46.962Z,7.90
2019-03-26T07:21:17.937Z,7.03
2019-03-26T07:23:49.294Z,8.70
2019-03-26T07:26:20.751Z,6.47
2019-03-26T07:28:51.786Z,6.53
2019-03-26T07:31:22.977Z,6.33
2019-03-26T07:33:53.988Z,6.17
2019-03-26T07:36:24.910Z,6.90
2019-03-26T07:38:56.038Z,6.13
2019-03-26T07:41:26.889Z,5.97
2019-03-26T07:43:57.860Z,6.87
2019-03-26T07:46:29.113Z,6.57
2019-03-26T07:48:59.942Z,7.63
2019-03-26T07:51:31.233Z,6.90
2019-03-26T07:54:02.471Z,6.50
2019-03-26T07:56:33.356Z,7.43
2019-03-26T07:59:04.477Z,7.17
2019-03-26T08:01:35.709Z,8.10
2019-03-26T08:04:06.989Z,7.10
2019-03-26T08:06:37.880Z,6.77
2019-03-26T08:09:09.232Z,6.87
2019-03-26T08:11:40.144Z,6.33
2019-03-26T08:14:11.097Z,7.60
2019-03-26T08:16:41.963Z,7.00
2019-03-26T08:19:12.996Z,6.87
2019-03-26T08:21:44.139Z,6.83
2019-03-26T08:24:15.208Z,7.73
2019-03-26T08:26:46.230Z,7.37
2019-03-26T08:29:17.207Z,6.30
2019-03-26T08:31:48.047Z,8.07
2019-03-26T08:34:18.944Z,6.70
2019-03-26T08:36:50.299Z,6.20
2019-03-26T08:39:21.334Z,6.10
2019-03-26T08:41:52.191Z,6.77
2019-03-26T08:44:23.364Z,7.53
2019-03-26T08:46:54.206Z,6.70
2019-03-26T08:49:30.608Z,5.97
2019-03-26T08:51:57.753Z,4.80
2019-03-26T08:54:29.109Z,5.23
2019-03-26T08:57:00.636Z,6.67
2019-03-26T08:59:31.770Z,5.70
2019-03-26T09:02:02.592Z,6.70
2019-03-26T09:04:33.793Z,7.40
2019-03-26T09:07:04.983Z,6.90
2019-03-26T09:09:35.869Z,6.47
2019-03-26T09:12:07.129Z,6.40
2019-03-26T09:14:38.382Z,6.70
2019-03-26T09:17:09.516Z,6.60
2019-03-26T09:19:40.583Z,6.37
2019-03-26T09:22:11.523Z,7.10
2019-03-26T09:24:42.774Z,5.73
2019-03-26T09:27:13.679Z,6.13
2019-03-26T09:29:44.552Z,5.97
2019-03-26T09:32:15.736Z,6.57
2019-03-26T09:34:46.924Z,5.83
2019-03-26T09:37:17.795Z,5.50
2019-03-26T09:39:48.924Z,6.73
2019-03-26T09:42:20.236Z,5.70
2019-03-26T09:44:51.102Z,5.23
2019-03-26T09:47:22.371Z,4.57
2019-03-26T09:49:53.656Z,5.87
2019-03-26T09:52:24.517Z,5.00
2019-03-26T09:54:55.456Z,5.40
2019-03-26T09:57:26.506Z,5.87
2019-03-26T09:59:57.364Z,5.60
2019-03-26T10:02:28.338Z,5.73
2019-03-26T10:04:59.514Z,5.13
2019-03-26T10:07:30.651Z,5.33
2019-03-26T10:10:01.583Z,6.07
2019-03-26T10:12:33.239Z,6.07
2019-03-26T10:15:04.704Z,6.30
2019-03-26T10:17:35.573Z,5.97
2019-03-26T10:20:07.164Z,6.30
2019-03-26T10:22:38.328Z,7.40
2019-03-26T10:25:11.348Z,7.93
2019-03-26T10:27:42.488Z,8.37
2019-03-26T10:30:15.319Z,7.73
2019-03-26T10:32:46.412Z,8.03
2019-03-26T10:35:17.671Z,7.40
2019-03-26T10:37:48.658Z,7.50
2019-03-26T10:40:31.593Z,8.53
2019-03-26T10:43:02.815Z,7.23
2019-03-26T10:45:33.749Z,7.60
2019-03-26T10:48:05.154Z,8.00
2019-03-26T10:50:36.356Z,11.90
2019-03-26T10:53:07.378Z,8.50
2019-03-26T10:55:38.592Z,8.83
2019-03-26T10:58:09.476Z,8.77
2019-03-26T11:00:40.640Z,7.33
2019-03-26T11:03:11.602Z,8.23
2019-03-26T11:05:42.447Z,9.87
2019-03-26T11:08:13.328Z,9.70
2019-03-26T11:10:44.647Z,8.93
2019-03-26T11:13:15.606Z,9.53
2019-03-26T11:15:46.562Z,9.47
2019-03-26T11:18:17.830Z,10.73
2019-03-26T11:21:01.697Z,10.00
2019-03-26T11:23:21.859Z,10.70
2019-03-26T11:25:53.051Z,8.90
2019-03-26T11:28:24.134Z,10.27
2019-03-26T11:30:55.396Z,9.03
2019-03-26T11:33:26.423Z,9.63
2019-03-26T11:35:57.309Z,10.30
2019-03-26T11:38:28.254Z,10.30
2019-03-26T11:41:02.523Z,10.43
2019-03-26T11:43:36.032Z,10.07
2019-03-26T11:46:07.454Z,10.50
2019-03-26T11:48:38.904Z,10.23
2019-03-26T11:51:09.985Z,10.83
2019-03-26T11:53:41.387Z,12.37
2019-03-26T11:56:12.661Z,9.03
2019-03-26T11:58:43.698Z,8.73
2019-03-26T12:01:14.813Z,10.53
2019-03-26T12:03:45.747Z,9.30
2019-03-26T12:06:16.901Z,8.63
2019-03-26T12:08:47.865Z,9.90
2019-03-26T12:11:18.705Z,10.00
2019-03-26T12:13:49.675Z,10.63
2019-03-26T12:16:20.964Z,11.33
2019-03-26T12:18:51.930Z,11.63
2019-03-26T12:21:22.951Z,13.20
2019-03-26T12:23:54.116Z,12.37
2019-03-26T12:26:24.968Z,13.93
2019-03-26T12:28:56.991Z,12.03
2019-03-26T12:31:28.089Z,12.93
2019-03-26T12:33:59.229Z,12.10
2019-03-26T12:36:39.722Z,14.60
2019-03-26T12:39:02.941Z,13.93
2019-03-26T12:41:34.487Z,12.73
2019-03-26T12:44:05.423Z,14.80
2019-03-26T12:46:36.297Z,13.90
2019-03-26T12:49:07.207Z,13.93
2019-03-26T12:51:39.381Z,14.27
2019-03-26T12:54:10.496Z,14.93
2019-03-26T12:56:41.524Z,14.80
2019-03-26T12:59:12.684Z,14.03
2019-03-26T13:01:43.785Z,15.53
2019-03-26T13:04:16.865Z,17.43
2019-03-26T13:06:47.547Z,12.97
2019-03-26T13:09:18.436Z,14.87
2019-03-26T13:11:49.695Z,12.80
2019-03-26T13:14:20.586Z,13.97
2019-03-26T13:16:51.597Z,13.90
2019-03-26T13:19:22.853Z,14.73
2019-03-26T13:21:54.033Z,13.80
2019-03-26T13:24:24.919Z,16.67
2019-03-26T13:26:56.212Z,14.73
2019-03-26T13:29:27.386Z,15.27
2019-03-26T13:31:58.373Z,14.70
2019-03-26T13:34:29.536Z,15.70
2019-03-26T13:37:00.568Z,13.37
2019-03-26T13:39:31.936Z,15.13
2019-03-26T13:42:03.045Z,13.27
2019-03-26T13:44:33.949Z,13.27
2019-03-26T13:47:05.185Z,16.77
2019-03-26T13:49:36.347Z,14.60
2019-03-26T13:52:07.203Z,13.57
2019-03-26T13:54:38.362Z,9.33
2019-03-26T13:57:09.612Z,8.67
2019-03-26T13:59:40.526Z,9.77
2019-03-26T14:02:11.687Z,8.97
2019-03-26T14:04:42.841Z,9.07
2019-03-26T14:07:13.834Z,10.27
2019-03-26T14:09:44.812Z,10.27
2019-03-26T14:12:17.079Z,8.97
2019-03-26T14:14:47.920Z,10.03
2019-03-26T14:17:18.941Z,11.17
2019-03-26T14:19:50.303Z,9.77
2019-03-26T14:22:21.228Z,9.30
2019-03-26T14:24:52.098Z,11.37
2019-03-26T14:27:23.274Z,9.77
2019-03-26T14:29:54.696Z,10.93
2019-03-26T14:32:25.599Z,10.57
2019-03-26T14:34:56.812Z,11.10
2019-03-26T14:37:29.700Z,11.17
2019-03-26T14:40:00.602Z,12.47
2019-03-26T14:42:31.741Z,13.67
2019-03-26T14:45:02.613Z,10.73
2019-03-26T14:47:33.774Z,11.40
2019-03-26T14:50:05.171Z,11.50
2019-03-26T14:52:36.018Z,12.33
2019-03-26T14:55:08.102Z,13.17
2019-03-26T14:57:39.388Z,13.83
2019-03-26T15:00:10.910Z,13.73
2019-03-26T15:02:43.594Z,9.53
2019-03-26T15:05:15.204Z,9.67
2019-03-26T15:07:46.139Z,9.60
2019-03-26T15:10:17.305Z,8.27
2019-03-26T15:12:48.518Z,7.73
2019-03-26T15:15:19.735Z,8.10
2019-03-26T15:17:51.088Z,12.67
2019-03-26T15:20:21.944Z,15.50
2019-03-26T15:22:53.055Z,13.50
2019-03-26T15:25:23.976Z,14.47
2019-03-26T15:27:54.845Z,14.20
2019-03-26T15:30:25.696Z,14.10
2019-03-26T15:32:58.041Z,14.33
2019-03-26T15:35:28.978Z,12.90
2019-03-26T15:37:59.890Z,14.20
2019-03-26T15:40:31.133Z,15.47
2019-03-26T15:43:02.131Z,12.67
2019-03-26T15:45:34.269Z,14.07
2019-03-26T15:48:05.294Z,13.57
2019-03-26T15:50:40.849Z,14.13
2019-03-26T15:53:12.007Z,14.27
2019-03-26T15:55:42.982Z,14.77
2019-03-26T15:58:13.866Z,15.23
2019-03-26T16:00:45.811Z,9.27
2019-03-26T16:03:16.964Z,12.90
2019-03-26T16:05:47.892Z,13.50
2019-03-26T16:08:19.167Z,12.00
2019-03-26T16:10:50.386Z,12.17
2019-03-26T16:13:21.417Z,7.53
2019-03-26T16:15:52.635Z,10.03
2019-03-26T16:18:23.832Z,7.87
2019-03-26T16:20:54.707Z,7.03
2019-03-26T16:23:25.747Z,6.77
2019-03-26T16:25:56.950Z,5.47
2019-03-26T16:28:27.817Z,4.97
2019-03-26T16:30:58.720Z,5.60
2019-03-26T16:33:29.727Z,5.43
2019-03-26T16:36:00.614Z,5.37
2019-03-26T16:38:31.674Z,5.57
2019-03-26T16:41:02.890Z,4.77
2019-03-26T16:43:33.940Z,4.90
2019-03-26T16:46:04.902Z,5.60
2019-03-26T16:48:36.215Z,5.33
2019-03-26T16:51:07.158Z,5.13
2019-03-26T16:53:38.534Z,6.57
2019-03-26T16:56:09.487Z,6.33
2019-03-26T16:58:40.825Z,5.63
2019-03-26T17:01:12.066Z,6.27
2019-03-26T17:03:43.222Z,7.53
2019-03-26T17:06:14.143Z,6.13
2019-03-26T17:08:45.519Z,7.03
2019-03-26T17:11:16.597Z,5.00
2019-03-26T17:13:47.580Z,5.57
2019-03-26T17:16:18.855Z,5.17
2019-03-26T17:18:50.094Z,5.77
2019-03-26T17:21:21.123Z,6.20
2019-03-26T17:23:52.166Z,5.97
2019-03-26T17:26:23.497Z,5.53
2019-03-26T17:28:54.737Z,6.60
2019-03-26T17:31:25.982Z,8.27
2019-03-26T17:33:56.889Z,7.73
2019-03-26T17:36:28.023Z,6.80
2019-03-26T17:38:59.325Z,7.90
2019-03-26T17:41:30.591Z,8.17
2019-03-26T17:44:02.643Z,9.53
2019-03-26T17:46:33.830Z,12.90
2019-03-26T17:49:04.782Z,8.90
2019-03-26T17:51:35.774Z,9.33
2019-03-26T17:54:06.767Z,9.50
2019-03-26T17:56:38.164Z,13.77
2019-03-26T17:59:09.395Z,9.20
2019-03-26T18:01:40.501Z,8.67
2019-03-26T18:04:11.426Z,10.60
2019-03-26T18:06:42.398Z,9.93
2019-03-26T18:09:13.533Z,9.33
2019-03-26T18:11:44.627Z,10.63
2019-03-26T18:14:15.870Z,9.70
2019-03-26T18:16:46.833Z,11.33
2019-03-26T18:19:17.854Z,13.70
2019-03-26T18:21:51.880Z,10.73
2019-03-26T18:24:22.184Z,11.13
2019-03-26T18:26:53.235Z,9.47
2019-03-26T18:29:24.189Z,8.03
2019-03-26T18:31:55.378Z,9.60
2019-03-26T18:34:26.260Z,8.73
2019-03-26T18:36:57.580Z,9.30
2019-03-26T18:39:29.016Z,8.37
2019-03-26T18:41:59.859Z,8.97
2019-03-26T18:44:31.086Z,8.07
2019-03-26T18:47:02.157Z,8.67
2019-03-26T18:49:33.269Z,10.23
2019-03-26T18:52:04.245Z,8.67
2019-03-26T18:54:35.468Z,9.47
2019-03-26T18:57:06.724Z,8.90
2019-03-26T18:59:37.905Z,10.40
2019-03-26T19:02:08.951Z,10.63
2019-03-26T19:04:40.215Z,9.97
2019-03-26T19:07:12.463Z,7.40
2019-03-26T19:09:43.610Z,8.13
2019-03-26T19:12:14.581Z,10.20
2019-03-26T19:14:47.317Z,9.93
2019-03-26T19:17:18.348Z,9.57
2019-03-26T19:19:49.315Z,8.73
2019-03-26T19:22:20.729Z,7.93
2019-03-26T19:24:52.055Z,10.47
2019-03-26T19:27:22.982Z,7.57
2019-03-26T19:29:54.689Z,8.13
2019-03-26T19:32:25.697Z,7.57
2019-03-26T19:34:56.710Z,6.17
2019-03-26T19:37:27.687Z,7.50
2019-03-26T19:39:58.643Z,5.77
2019-03-26T19:42:30.054Z,5.63
2019-03-26T19:45:01.184Z,6.57
2019-03-26T19:47:32.122Z,5.63
2019-03-26T19:50:03.138Z,6.53
2019-03-26T19:52:34.301Z,5.90
2019-03-26T19:55:05.350Z,7.30
2019-03-26T19:57:36.609Z,7.40
2019-03-26T20:00:09.816Z,6.67
2019-03-26T20:02:41.960Z,6.33
2019-03-26T20:05:13.090Z,7.13
2019-03-26T20:07:43.909Z,4.97
2019-03-26T20:10:15.492Z,5.80
2019-03-26T20:12:46.697Z,5.97
2019-03-26T20:15:18.412Z,6.20
2019-03-26T20:17:49.709Z,5.60
2019-03-26T20:20:22.507Z,4.83
2019-03-26T20:22:54.493Z,5.27
2019-03-26T20:25:26.506Z,4.60
2019-03-26T20:27:57.800Z,5.27
2019-03-26T20:30:28.960Z,5.43
2019-03-26T20:32:59.974Z,4.87
2019-03-26T20:35:31.028Z,4.50
2019-03-26T20:38:02.103Z,4.90
2019-03-26T20:40:33.131Z,4.80
2019-03-26T20:43:04.049Z,4.87
2019-03-26T20:45:35.104Z,4.50
2019-03-26T20:48:06.513Z,5.27
2019-03-26T20:50:37.334Z,4.57
2019-03-26T20:53:08.530Z,5.47
2019-03-26T20:55:39.614Z,5.00
2019-03-26T20:58:10.611Z,5.40
2019-03-26T21:00:42.978Z,4.87
2019-03-26T21:03:14.178Z,6.00
2019-03-26T21:05:45.144Z,5.57
2019-03-26T21:08:16.060Z,7.10
2019-03-26T21:10:46.917Z,6.33
2019-03-26T21:13:17.877Z,8.40
2019-03-26T21:15:56.973Z,6.67
2019-03-26T21:18:21.750Z,5.40
2019-03-26T21:20:52.937Z,8.17
2019-03-26T21:23:24.125Z,6.97
2019-03-26T21:25:55.197Z,6.87
2019-03-26T21:28:26.059Z,5.53
2019-03-26T21:30:57.210Z,4.70
2019-03-26T21:33:28.297Z,4.80
2019-03-26T21:35:59.096Z,7.70
2019-03-26T21:38:30.049Z,5.90
2019-03-26T21:41:00.862Z,5.07
2019-03-26T21:43:32.146Z,4.77
2019-03-26T21:46:03.216Z,5.50
2019-03-26T21:48:34.082Z,5.17
2019-03-26T21:51:05.243Z,4.63
2019-03-26T21:53:36.362Z,4.40
2019-03-26T21:56:07.289Z,4.73
2019-03-26T21:58:38.665Z,5.20
2019-03-26T22:01:09.898Z,5.23
2019-03-26T22:03:40.807Z,4.53
2019-03-26T22:06:11.899Z,5.20
2019-03-26T22:08:42.924Z,4.57
2019-03-26T22:11:13.746Z,4.97
2019-03-26T22:13:45.011Z,4.87
2019-03-26T22:16:15.869Z,5.40
2019-03-26T22:18:47.014Z,5.50
2019-03-26T22:21:18.286Z,5.43
2019-03-26T22:23:49.255Z,4.83
2019-03-26T22:26:20.381Z,4.70
2019-03-26T22:28:51.572Z,4.47
2019-03-26T22:31:22.538Z,6.47
2019-03-26T22:33:53.597Z,4.70
2019-03-26T22:36:24.552Z,5.53
2019-03-26T22:38:55.358Z,5.07
2019-03-26T22:41:26.348Z,4.67
2019-03-26T22:43:58.519Z,5.20
2019-03-26T22:46:29.597Z,4.80
2019-03-26T22:49:00.514Z,5.30
2019-03-26T22:51:31.693Z,5.63
2019-03-26T22:54:02.914Z,4.70
2019-03-26T22:56:33.831Z,5.27
2019-03-26T22:59:05.009Z,5.73
2019-03-26T23:01:35.850Z,4.73
2019-03-26T23:04:06.825Z,5.00
2019-03-26T23:06:38.025Z,4.87
2019-03-26T23:09:09.060Z,5.20
2019-03-26T23:11:40.006Z,5.30
2019-03-26T23:14:10.953Z,5.30
2019-03-26T23:16:42.262Z,4.63
2019-03-26T23:19:13.569Z,4.97
2019-03-26T23:21:44.711Z,5.00
2019-03-26T23:24:15.646Z,5.23
2019-03-26T23:26:46.827Z,4.90
2019-03-26T23:29:17.860Z,5.00
2019-03-26T23:31:48.825Z,4.83
2019-03-26T23:34:19.796Z,4.57
2019-03-26T23:36:51.036Z,5.10
2019-03-26T23:39:21.857Z,4.63
2019-03-26T23:41:52.727Z,4.57
2019-03-26T23:44:26.006Z,5.03
2019-03-26T23:46:56.855Z,4.93
2019-03-26T23:49:28.060Z,6.03
2019-03-26T23:51:58.973Z,4.83
2019-03-26T23:54:30.098Z,4.93
2019-03-26T23:57:01.266Z,5.30
2019-03-26T23:59:32.098Z,5.40
